Time;durP1;ratioP1;P1;durP2;ratioP2;P2;SDS_P1;SDS_P2;PMS_P1;PMS_P2;Temp;Humidity;BMP_temperature;BMP_pressure;BME280_temperature;BME280_humidity;BME280_pressure;Samples;Min_cycle;Max_cycle;Signal;HPM_P1;HPM_P2
2021/12/08 00:01:49;;;;;;;2.45;1.70;;;;;;;4.77;68.97;97199.16;2624587;54;20674;-70
2021/12/08 00:04:22;;;;;;;4.65;1.70;;;;;;;4.75;69.07;97203.78;2623931;47;20049;-70
2021/12/08 00:06:52;;;;;;;2.28;1.50;;;;;;;4.71;69.12;97198.13;2625860;54;20030;-69
2021/12/08 00:09:27;;;;;;;2.50;1.42;;;;;;;4.63;68.96;97206.94;2626335;54;20034;-69
2021/12/08 00:14:40;;;;;;;5.28;1.50;;;;;;;4.66;69.43;97201.34;2626082;54;20042;-69
2021/12/08 00:17:09;;;;;;;3.22;1.42;;;;;;;4.70;70.22;97202.56;2625827;54;20039;-69
2021/12/08 00:19:42;;;;;;;3.80;1.33;;;;;;;4.70;69.89;97197.31;2626623;54;20553;-69
2021/12/08 00:22:11;;;;;;;4.60;1.65;;;;;;;4.64;69.74;97198.09;2625451;54;20038;-69
2021/12/08 00:24:43;;;;;;;3.28;1.58;;;;;;;4.61;70.02;97198.50;2626873;54;20086;-70
2021/12/08 00:27:13;;;;;;;2.17;1.25;;;;;;;4.58;70.44;97192.84;2626645;54;20038;-69
2021/12/08 00:29:43;;;;;;;2.92;1.20;;;;;;;4.58;70.69;97201.50;2626520;54;20103;-69
2021/12/08 00:32:12;;;;;;;2.75;1.20;;;;;;;4.57;70.24;97197.28;2626188;54;20058;-69
2021/12/08 00:34:45;;;;;;;1.90;1.40;;;;;;;4.59;70.55;97192.63;2625829;54;20027;-69
2021/12/08 00:37:14;;;;;;;4.70;1.70;;;;;;;4.54;71.06;97199.47;2626942;39;20542;-69
2021/12/08 00:39:44;;;;;;;3.50;1.50;;;;;;;4.54;71.23;97204.69;2626406;54;20038;-69
2021/12/08 00:42:14;;;;;;;2.08;1.88;;;;;;;4.54;71.32;97197.66;2626133;54;20027;-70
2021/12/08 00:44:43;;;;;;;1.85;1.00;;;;;;;4.59;71.17;97191.84;2625911;54;20030;-69
2021/12/08 00:47:13;;;;;;;3.25;1.60;;;;;;;4.54;71.56;97192.41;2626380;39;20446;-69
2021/12/08 00:49:47;;;;;;;3.17;1.38;;;;;;;4.56;71.65;97192.22;2625822;54;20558;-69
2021/12/08 00:52:16;;;;;;;2.08;1.40;;;;;;;4.47;72.39;97197.59;2624595;51;20051;-69
2021/12/08 00:54:46;;;;;;;3.35;1.77;;;;;;;4.49;72.56;97213.13;2624605;54;20086;-69
2021/12/08 00:57:16;;;;;;;3.47;1.48;;;;;;;4.53;72.41;97211.75;2625855;54;20035;-70
2021/12/08 00:59:45;;;;;;;3.28;1.23;;;;;;;4.50;72.57;97225.19;2626357;54;20027;-69
2021/12/08 01:02:28;;;;;;;2.05;1.15;;;;;;;4.48;72.58;97224.56;2626455;46;20034;-70
2021/12/08 01:05:00;;;;;;;2.35;1.27;;;;;;;4.52;72.45;97214.53;2626811;54;20050;-69
2021/12/08 01:07:32;;;;;;;1.77;1.08;;;;;;;4.53;72.53;97210.91;2626548;54;20030;-70
2021/12/08 01:10:02;;;;;;;1.38;1.27;;;;;;;4.51;72.36;97202.47;2626495;54;20031;-69
2021/12/08 01:12:51;;;;;;;3.08;1.25;;;;;;;4.49;72.77;97213.13;2626464;54;20175;-69
2021/12/08 01:15:22;;;;;;;1.55;1.23;;;;;;;4.54;72.58;97213.34;2627341;54;20034;-70
2021/12/08 01:17:51;;;;;;;5.03;1.80;;;;;;;4.55;72.81;97208.91;2627292;54;20047;-70
2021/12/08 01:20:24;;;;;;;2.15;1.20;;;;;;;4.57;73.21;97199.88;2626459;54;20033;-70
2021/12/08 01:22:54;;;;;;;2.03;1.42;;;;;;;4.59;72.68;97205.72;2626935;54;20090;-70
2021/12/08 01:25:23;;;;;;;5.03;1.75;;;;;;;4.58;72.74;97196.25;2627394;39;20551;-69
2021/12/08 01:27:53;;;;;;;3.63;1.42;;;;;;;4.58;72.97;97201.50;2626618;54;20031;-70
2021/12/08 01:30:23;;;;;;;1.60;1.38;;;;;;;4.63;72.91;97191.25;2626231;54;20537;-70
2021/12/08 01:32:53;;;;;;;1.98;1.27;;;;;;;4.71;72.91;97187.66;2626114;46;20053;-69
2021/12/08 01:35:27;;;;;;;2.45;1.42;;;;;;;4.73;73.38;97193.50;2626153;54;20046;-69
2021/12/08 01:37:57;;;;;;;3.83;1.73;;;;;;;4.77;73.39;97188.69;2625147;54;20026;-70
2021/12/08 01:40:26;;;;;;;1.67;1.20;;;;;;;4.83;73.16;97191.34;2625138;54;20037;-68
2021/12/08 01:42:58;;;;;;;2.38;1.30;;;;;;;4.89;73.25;97189.75;2625287;54;20081;-69
2021/12/08 01:48:14;;;;;;;;;;;;;;;4.87;73.44;97173.44;2625380;54;20039;-68
2021/12/08 01:50:50;;;;;;;6.15;1.95;;;;;;;4.88;73.71;97177.66;2626310;54;19938;-69
2021/12/08 01:53:20;;;;;;;2.42;1.63;;;;;;;4.84;73.82;97176.44;2625830;54;20053;-69
2021/12/08 01:55:50;;;;;;;2.55;1.60;;;;;;;4.84;74.22;97186.91;2626119;54;20050;-69
2021/12/08 01:58:20;;;;;;;2.03;1.52;;;;;;;4.91;74.02;97185.94;2626302;54;20038;-68
2021/12/08 02:00:55;;;;;;;2.40;1.85;;;;;;;5.00;74.24;97170.03;2626317;54;20034;-69
2021/12/08 02:03:26;;;;;;;4.57;1.95;;;;;;;5.00;73.76;97162.19;2626095;54;20029;-69
2021/12/08 02:05:59;;;;;;;4.60;2.00;;;;;;;4.98;74.18;97172.88;2625593;54;20045;-69
2021/12/08 02:08:29;;;;;;;6.78;2.15;;;;;;;4.99;74.10;97168.44;2624339;54;20038;-69
2021/12/08 02:11:00;;;;;;;5.05;2.00;;;;;;;5.02;74.51;97168.84;2625337;39;20206;-69
2021/12/08 02:13:35;;;;;;;4.15;2.15;;;;;;;5.07;74.20;97173.50;2623275;54;20082;-69
2021/12/08 02:16:10;;;;;;;5.70;1.85;;;;;;;5.11;74.12;97172.09;2625595;54;20034;-69
2021/12/08 02:18:41;;;;;;;2.75;1.80;;;;;;;5.09;74.21;97179.34;2626743;54;20086;-69
2021/12/08 02:21:27;;;;;;;2.08;1.85;;;;;;;5.14;74.67;97172.53;2625023;54;20033;-69
2021/12/08 02:24:00;;;;;;;3.63;2.20;;;;;;;5.13;74.71;97173.50;2626895;54;20041;-69
2021/12/08 02:26:30;;;;;;;2.00;1.73;;;;;;;5.18;74.74;97173.75;2626275;54;20038;-70
2021/12/08 02:29:05;;;;;;;2.78;1.95;;;;;;;5.22;74.76;97169.72;2624518;54;20034;-70
2021/12/08 02:31:42;;;;;;;4.03;2.22;;;;;;;5.24;74.43;97171.31;2623255;46;20027;-69
2021/12/08 02:47:55;;;;;;;6.55;2.25;;;;;;;5.32;75.17;97173.75;2626286;54;20038;-69
2021/12/08 02:50:28;;;;;;;4.60;2.80;;;;;;;5.35;75.08;97168.13;2626249;54;20037;-70
2021/12/08 02:53:02;;;;;;;7.13;2.72;;;;;;;5.37;75.24;97166.91;2625907;47;20029;-68
2021/12/08 02:55:35;;;;;;;3.03;2.40;;;;;;;5.41;75.21;97168.13;2625668;54;20546;-69
2021/12/08 02:58:06;;;;;;;5.72;2.58;;;;;;;5.43;75.41;97176.59;2626094;54;20045;-70
2021/12/08 03:00:39;;;;;;;7.63;2.63;;;;;;;5.44;74.96;97164.31;2626028;46;20033;-69
2021/12/08 03:03:09;;;;;;;5.97;2.70;;;;;;;5.42;75.68;97169.72;2625449;47;20022;-69
2021/12/08 03:05:39;;;;;;;4.93;2.63;;;;;;;5.46;75.22;97175.38;2626308;54;20041;-70
2021/12/08 03:08:12;;;;;;;3.85;2.80;;;;;;;5.50;75.33;97179.22;2625707;54;20038;-69
2021/12/08 03:10:51;;;;;;;4.88;2.65;;;;;;;5.50;75.47;97176.59;2626071;54;20015;-70
2021/12/08 03:13:21;;;;;;;6.07;2.50;;;;;;;5.50;75.21;97184.47;2626623;54;20045;-72
2021/12/08 03:15:51;;;;;;;3.65;2.67;;;;;;;5.52;75.18;97171.16;2625404;47;20054;-69
2021/12/08 03:18:22;;;;;;;5.95;2.53;;;;;;;5.52;75.54;97182.47;2625845;54;20038;-69
2021/12/08 03:20:53;;;;;;;3.50;2.47;;;;;;;5.50;75.83;97186.28;2625736;54;20046;-72
2021/12/08 03:23:32;;;;;;;3.28;2.50;;;;;;;5.50;75.91;97184.47;2627144;39;20466;-70
2021/12/08 03:26:06;;;;;;;4.40;3.13;;;;;;;5.52;75.75;97179.84;2627749;39;20457;-69
2021/12/08 03:28:42;;;;;;;5.22;2.63;;;;;;;5.51;75.62;97170.38;2626490;54;20102;-69
2021/12/08 03:31:16;;;;;;;5.03;2.70;;;;;;;5.54;75.59;97169.94;2624993;54;20042;-70
2021/12/08 03:33:47;;;;;;;7.75;3.00;;;;;;;5.59;75.98;97169.34;2626060;54;20035;-69
2021/12/08 03:36:16;;;;;;;5.28;2.60;;;;;;;5.60;76.09;97171.78;2625683;54;20025;-71
2021/12/08 03:38:49;;;;;;;5.93;2.92;;;;;;;5.59;75.86;97164.09;2626755;39;20423;-70
2021/12/08 03:41:23;;;;;;;3.78;2.70;;;;;;;5.59;75.90;97166.72;2625115;54;20030;-70
2021/12/08 03:43:52;;;;;;;6.22;2.78;;;;;;;5.59;76.38;97164.94;2622344;54;20038;-69
2021/12/08 03:46:26;;;;;;;3.95;2.85;;;;;;;5.59;76.25;97166.72;2622439;47;20038;-71
2021/12/08 03:48:57;;;;;;;3.92;3.13;;;;;;;5.60;76.25;97160.50;2623107;54;20034;-69
2021/12/08 03:51:27;;;;;;;6.53;3.17;;;;;;;5.58;76.07;97157.25;2624550;54;20053;-69
2021/12/08 03:53:59;;;;;;;3.78;2.88;;;;;;;5.58;76.57;97142.31;2624128;47;20026;-69
2021/12/08 03:56:29;;;;;;;8.52;3.35;;;;;;;5.60;76.77;97142.94;2624368;54;20046;-68
2021/12/08 03:58:58;;;;;;;11.13;3.22;;;;;;;5.62;76.63;97135.66;2622880;54;20581;-69
2021/12/08 04:01:28;;;;;;;4.78;3.53;;;;;;;5.61;76.33;97133.25;2622893;47;20030;-69
2021/12/08 04:04:02;;;;;;;8.50;3.10;;;;;;;5.61;76.65;97139.31;2622720;54;20025;-69
2021/12/08 04:06:39;;;;;;;5.15;3.03;;;;;;;5.63;76.76;97141.72;2626083;39;20438;-68
2021/12/08 04:09:19;;;;;;;4.18;3.10;;;;;;;5.66;76.59;97141.31;2624346;47;20035;-68
2021/12/08 04:11:49;;;;;;;4.22;3.08;;;;;;;5.67;76.35;97148.16;2625329;54;20042;-69
2021/12/08 04:14:22;;;;;;;4.75;3.20;;;;;;;5.68;76.70;97150.59;2624688;54;20034;-69
2021/12/08 04:16:56;;;;;;;4.15;3.13;;;;;;;5.65;76.41;97150.19;2625592;54;20045;-68
2021/12/08 04:19:28;;;;;;;5.90;3.53;;;;;;;5.63;76.49;97147.78;2625536;54;20027;-69
2021/12/08 04:22:02;;;;;;;5.13;3.47;;;;;;;5.62;76.61;97148.78;2625334;54;20045;-69
2021/12/08 04:24:34;;;;;;;5.68;2.95;;;;;;;5.62;76.57;97150.59;2624842;54;20050;-68
2021/12/08 04:27:08;;;;;;;7.38;3.40;;;;;;;5.61;76.83;97157.66;2625288;54;20038;-68
2021/12/08 04:29:40;;;;;;;4.07;3.28;;;;;;;5.60;76.56;97161.28;2625476;54;20046;-68
2021/12/08 04:32:15;;;;;;;6.32;3.45;;;;;;;5.60;76.74;97157.88;2625165;54;20034;-68
2021/12/08 04:34:49;;;;;;;5.45;3.63;;;;;;;5.59;77.28;97158.84;2624793;47;20018;-71
2021/12/08 04:37:27;;;;;;;6.13;4.00;;;;;;;5.58;77.33;97167.72;2625379;46;20026;-69
2021/12/08 04:40:12;;;;;;;5.82;3.30;;;;;;;5.61;77.44;97165.53;2625738;54;20688;-69
2021/12/08 04:42:55;;;;;;;3.65;2.65;;;;;;;5.61;76.99;97162.09;2625406;47;20030;-70
2021/12/08 04:45:34;;;;;;;4.97;3.25;;;;;;;5.57;77.03;97171.38;2626439;54;20039;-69
2021/12/08 04:48:20;;;;;;;5.57;3.10;;;;;;;5.59;77.10;97171.97;2625088;39;20436;-70
2021/12/08 04:51:28;;;;;;;4.38;3.13;;;;;;;5.62;77.45;97172.38;2623271;47;20026;-68
2021/12/08 05:00:17;;;;;;;5.13;2.80;;;;;;;5.61;77.28;97173.38;2623549;47;20029;-69
2021/12/08 05:02:48;;;;;;;5.90;3.15;;;;;;;5.61;77.38;97162.91;2623878;39;20418;-68
2021/12/08 05:05:35;;;;;;;5.35;3.25;;;;;;;5.62;77.60;97174.19;2623385;54;20027;-69
2021/12/08 05:08:14;;;;;;;7.68;4.00;;;;;;;5.63;77.71;97171.38;2623446;54;20041;-68
2021/12/08 05:10:44;;;;;;;9.07;4.32;;;;;;;5.69;77.80;97177.63;2623830;54;20542;-68
2021/12/08 05:13:20;;;;;;;8.70;3.97;;;;;;;5.73;77.89;97184.09;2623209;54;20030;-68
2021/12/08 05:15:54;;;;;;;4.47;2.90;;;;;;;5.74;77.83;97182.25;2623625;54;20026;-67
2021/12/08 05:18:27;;;;;;;5.65;4.03;;;;;;;5.77;77.89;97182.69;2622954;47;20030;-68
2021/12/08 05:21:03;;;;;;;8.85;4.53;;;;;;;5.80;77.42;97186.72;2624004;54;20026;-68
2021/12/08 05:23:36;;;;;;;6.15;3.65;;;;;;;5.85;77.51;97197.41;2623655;47;20033;-68
2021/12/08 05:26:10;;;;;;;6.38;3.70;;;;;;;5.89;77.09;97206.47;2624247;47;20058;-67
2021/12/08 05:28:44;;;;;;;7.30;3.60;;;;;;;5.90;77.46;97202.84;2624052;54;20042;-69
2021/12/08 05:31:17;;;;;;;6.65;3.67;;;;;;;5.85;77.54;97197.41;2623905;54;20063;-68
2021/12/08 05:33:48;;;;;;;5.78;3.42;;;;;;;5.83;76.99;97179.22;2623201;54;20034;-68
2021/12/08 05:36:18;;;;;;;9.35;3.85;;;;;;;5.78;77.55;97173.78;2623039;54;20034;-68
2021/12/08 05:38:48;;;;;;;5.28;3.33;;;;;;;5.78;77.52;97175.63;2622671;54;20034;-68
2021/12/08 05:41:20;;;;;;;8.05;3.55;;;;;;;5.80;77.45;97198.00;2623268;54;20039;-69
2021/12/08 05:43:52;;;;;;;7.88;4.25;;;;;;;5.84;77.08;97185.31;2623975;54;20034;-70
2021/12/08 05:46:24;;;;;;;5.57;4.03;;;;;;;5.79;77.33;97190.34;2623131;46;20038;-68
2021/12/08 05:48:55;;;;;;;5.13;3.15;;;;;;;5.77;77.71;97193.16;2624989;39;20427;-68
2021/12/08 05:51:27;;;;;;;8.70;3.40;;;;;;;5.79;77.64;97191.13;2625515;54;20042;-68
2021/12/08 05:54:00;;;;;;;6.57;3.15;;;;;;;5.81;77.39;97191.75;2624479;39;20445;-69
2021/12/08 05:56:31;;;;;;;4.53;3.00;;;;;;;5.80;77.66;97208.50;2625413;47;20030;-68
2021/12/08 05:59:05;;;;;;;6.43;3.25;;;;;;;5.82;77.54;97210.91;2625154;54;20030;-68
2021/12/08 06:01:38;;;;;;;9.32;3.60;;;;;;;5.82;77.43;97201.22;2625462;54;20042;-67
2021/12/08 06:04:11;;;;;;;5.47;2.70;;;;;;;5.83;77.32;97202.03;2625522;54;20018;-69
2021/12/08 06:06:41;;;;;;;5.60;3.80;;;;;;;5.85;77.49;97205.28;2624160;47;20034;-68
2021/12/08 06:09:14;;;;;;;5.78;3.70;;;;;;;5.85;77.39;97194.78;2623237;54;20041;-68
2021/12/08 06:11:45;;;;;;;5.13;3.42;;;;;;;5.81;76.96;97199.63;2623206;54;20558;-68
2021/12/08 06:14:17;;;;;;;8.05;3.45;;;;;;;5.77;77.03;97206.28;2622959;54;20027;-68
2021/12/08 06:16:49;;;;;;;4.78;2.95;;;;;;;5.76;77.04;97211.72;2623407;54;20565;-68
2021/12/08 06:19:19;;;;;;;6.43;3.78;;;;;;;5.77;77.47;97197.59;2625644;54;20026;-68
2021/12/08 06:21:51;;;;;;;4.85;3.33;;;;;;;5.75;77.42;97184.69;2625474;39;20537;-68
2021/12/08 06:24:24;;;;;;;5.22;2.60;;;;;;;5.74;76.93;97172.59;2625387;54;20030;-69
2021/12/08 06:26:55;;;;;;;6.13;2.45;;;;;;;5.66;77.19;97172.78;2625215;54;20027;-68
2021/12/08 06:29:27;;;;;;;4.00;2.90;;;;;;;5.61;77.37;97175.19;2625456;54;20568;-68
2021/12/08 06:32:01;;;;;;;4.97;2.70;;;;;;;5.60;77.52;97174.41;2628066;39;20395;-68
2021/12/08 06:34:30;;;;;;;7.22;3.47;;;;;;;5.56;77.43;97191.53;2625589;54;20018;-68
2021/12/08 06:37:05;;;;;;;4.70;3.60;;;;;;;5.61;78.03;97201.41;2625996;54;20035;-71
2021/12/08 06:39:39;;;;;;;6.80;3.10;;;;;;;5.66;77.58;97205.03;2626005;54;20023;-68
2021/12/08 06:42:12;;;;;;;4.38;2.72;;;;;;;5.63;77.54;97191.53;2625753;54;20023;-68
2021/12/08 06:44:48;;;;;;;5.65;2.92;;;;;;;5.60;77.71;97203.25;2625601;54;20034;-69
2021/12/08 06:47:22;;;;;;;5.43;2.83;;;;;;;5.61;77.82;97185.69;2625481;54;20058;-69
2021/12/08 06:49:55;;;;;;;5.13;2.97;;;;;;;5.63;77.59;97184.50;2625360;54;20042;-68
2021/12/08 06:52:28;;;;;;;5.22;2.97;;;;;;;5.63;77.82;97196.78;2624918;54;20573;-68
2021/12/08 06:55:01;;;;;;;6.47;3.35;;;;;;;5.68;78.26;97205.66;2625788;54;20027;-68
2021/12/08 06:57:37;;;;;;;8.38;4.35;;;;;;;5.72;77.90;97206.06;2624775;47;20055;-68
2021/12/08 07:00:22;;;;;;;4.65;2.95;;;;;;;5.75;78.18;97210.09;2625756;54;20034;-68
2021/12/08 07:08:21;;;;;;;7.03;2.80;;;;;;;5.75;78.18;97208.28;2624525;54;20027;-68
2021/12/08 07:10:53;;;;;;;4.90;3.25;;;;;;;5.77;78.08;97215.97;2625495;54;20526;-68
2021/12/08 07:13:31;;;;;;;6.43;2.70;;;;;;;5.81;78.13;97214.56;2625572;54;20605;-69
2021/12/08 07:16:26;;;;;;;8.23;3.60;;;;;;;5.85;77.98;97215.75;2624507;47;20026;-69
2021/12/08 07:19:01;;;;;;;7.55;2.90;;;;;;;5.87;78.08;97208.50;2625503;54;20017;-69
2021/12/08 07:21:34;;;;;;;7.28;3.30;;;;;;;5.90;78.04;97206.28;2625010;54;20038;-69
2021/12/08 07:24:08;;;;;;;8.43;3.13;;;;;;;5.94;77.68;97201.47;2625896;54;20031;-68
2021/12/08 07:26:41;;;;;;;7.47;5.15;;;;;;;5.98;77.65;97209.75;2625523;46;20034;-69
2021/12/08 07:29:15;;;;;;;8.02;4.55;;;;;;;5.99;77.72;97222.66;2625408;54;20026;-69
2021/12/08 07:31:51;;;;;;;10.93;4.38;;;;;;;6.02;77.34;97234.56;2626146;31;20494;-69
2021/12/08 07:34:23;;;;;;;7.57;3.47;;;;;;;6.01;77.43;97243.44;2625662;54;20035;-69
2021/12/08 07:36:57;;;;;;;6.30;3.20;;;;;;;6.02;77.34;97224.06;2625537;54;20050;-68
2021/12/08 07:39:30;;;;;;;5.22;3.17;;;;;;;6.04;77.19;97208.91;2625451;54;20030;-69
2021/12/08 07:42:07;;;;;;;9.38;4.35;;;;;;;6.04;77.08;97201.88;2625372;54;20050;-69
2021/12/08 07:44:36;;;;;;;7.57;3.83;;;;;;;6.03;77.40;97200.25;2626003;54;20031;-68
2021/12/08 07:47:13;;;;;;;5.80;3.97;;;;;;;6.05;77.12;97197.44;2625088;54;20027;-69
2021/12/08 07:49:46;;;;;;;5.45;4.07;;;;;;;6.00;76.51;97182.31;2624923;54;20042;-69
2021/12/08 07:52:19;;;;;;;6.20;3.88;;;;;;;5.95;76.67;97198.63;2625378;54;20033;-69
2021/12/08 07:54:50;;;;;;;9.32;3.78;;;;;;;5.99;77.27;97204.28;2624840;54;20030;-68
2021/12/08 07:57:23;;;;;;;8.23;4.72;;;;;;;6.05;77.27;97216.59;2625256;54;20428;-69
2021/12/08 08:00:02;;;;;;;6.82;3.35;;;;;;;6.11;77.16;97221.03;2624985;54;20030;-69
2021/12/08 08:02:35;;;;;;;6.68;3.22;;;;;;;6.13;76.95;97221.66;2624816;47;20130;-69
2021/12/08 08:05:08;;;;;;;5.55;2.83;;;;;;;6.19;76.84;97222.63;2625151;54;20038;-69
2021/12/08 08:07:41;;;;;;;8.82;2.95;;;;;;;6.18;76.66;97215.78;2625824;54;20125;-68
2021/12/08 08:10:15;;;;;;;9.73;3.40;;;;;;;6.14;76.51;97209.34;2626332;54;20038;-68
2021/12/08 08:12:47;;;;;;;6.53;3.10;;;;;;;6.13;76.62;97221.66;2626944;39;20556;-69
2021/12/08 08:15:21;;;;;;;10.48;3.70;;;;;;;6.17;76.32;97237.78;2625203;39;20451;-68
2021/12/08 08:17:55;;;;;;;5.72;2.85;;;;;;;6.15;76.57;97234.56;2624862;54;20034;-69
2021/12/08 08:20:28;;;;;;;4.75;2.67;;;;;;;6.15;76.52;97240.59;2626034;54;20033;-68
2021/12/08 08:23:00;;;;;;;7.60;3.10;;;;;;;6.13;76.11;97240.00;2625634;47;20033;-68
2021/12/08 08:25:36;;;;;;;6.28;3.38;;;;;;;6.24;76.05;97240.41;2626305;54;20552;-68
2021/12/08 08:28:07;;;;;;;5.15;2.53;;;;;;;6.25;75.86;97244.66;2626470;54;20034;-69
2021/12/08 08:30:41;;;;;;;6.05;3.10;;;;;;;6.26;76.16;97254.94;2626081;47;20580;-69
2021/12/08 08:33:14;;;;;;;9.68;3.35;;;;;;;6.36;76.02;97263.19;2626181;54;20034;-68
2021/12/08 08:35:47;;;;;;;5.82;4.18;;;;;;;6.43;75.77;97269.25;2626699;54;20030;-68
2021/12/08 08:38:21;;;;;;;10.60;4.70;;;;;;;6.47;75.97;97260.97;2627216;39;20462;-68
2021/12/08 08:40:52;;;;;;;;;;;;;;;6.45;75.54;97255.94;2626332;54;20035;-67
2021/12/08 08:43:23;;;;;;;9.45;4.25;;;;;;;6.38;75.56;97253.31;2626682;39;20519;-68
2021/12/08 08:45:56;;;;;;;6.93;3.92;;;;;;;6.38;75.86;97253.31;2626822;54;20033;-69
2021/12/08 08:48:31;;;;;;;6.03;3.03;;;;;;;6.41;75.86;97250.28;2625305;54;20094;-72
2021/12/08 08:51:10;;;;;;;8.20;3.30;;;;;;;6.44;75.67;97238.56;2624416;54;20026;-70
2021/12/08 08:53:42;;;;;;;6.57;2.97;;;;;;;6.45;75.90;97245.44;2625597;54;20041;-68
2021/12/08 08:56:18;;;;;;;8.52;3.00;;;;;;;6.45;75.61;97246.25;2624001;54;20039;-70
2021/12/08 08:58:51;;;;;;;6.25;3.30;;;;;;;6.45;75.79;97248.88;2623382;54;20030;-70
2021/12/08 09:01:24;;;;;;;7.50;3.58;;;;;;;6.47;75.61;97247.84;2621902;47;20049;-70
2021/12/08 09:04:00;;;;;;;8.65;3.53;;;;;;;6.47;76.03;97248.66;2623552;54;20062;-71
2021/12/08 09:06:34;;;;;;;6.80;2.28;;;;;;;6.50;75.94;97247.44;2623843;54;20035;-69
2021/12/08 09:09:10;;;;;;;5.07;2.75;;;;;;;6.52;75.40;97255.91;2623452;39;20425;-70
2021/12/08 09:11:44;;;;;;;5.50;2.05;;;;;;;6.48;75.69;97259.97;2623868;54;20030;-69
2021/12/08 09:14:18;;;;;;;4.93;2.45;;;;;;;6.46;75.25;97265.44;2624876;39;20419;-70
2021/12/08 09:16:53;;;;;;;6.32;2.20;;;;;;;6.39;75.60;97262.81;2623465;54;20035;-70
2021/12/08 09:19:29;;;;;;;6.55;2.20;;;;;;;6.38;75.62;97271.69;2625161;54;20030;-71
2021/12/08 09:22:03;;;;;;;6.15;2.50;;;;;;;6.38;75.93;97284.81;2626099;54;20046;-70
2021/12/08 09:24:53;;;;;;;4.03;2.30;;;;;;;6.32;75.92;97293.47;2626153;54;20114;-69
2021/12/08 09:27:31;;;;;;;8.07;2.33;;;;;;;6.30;76.47;97305.22;2623474;54;20059;-70
2021/12/08 09:30:05;;;;;;;7.20;2.30;;;;;;;6.31;76.23;97323.38;2623768;39;20443;-70
2021/12/08 09:32:40;;;;;;;7.78;2.85;;;;;;;6.26;76.63;97330.25;2621850;54;20038;-69
2021/12/08 09:35:16;;;;;;;5.90;2.70;;;;;;;6.26;77.01;97328.41;2623451;39;20559;-69
2021/12/08 09:37:49;;;;;;;5.65;2.65;;;;;;;6.19;76.90;97324.97;2622823;39;20443;-69
2021/12/08 09:40:27;;;;;;;6.68;2.45;;;;;;;6.18;76.66;97328.63;2622069;54;20128;-69
2021/12/08 09:43:01;;;;;;;4.43;1.88;;;;;;;6.13;76.45;97323.16;2623560;54;20589;-67
2021/12/08 09:45:36;;;;;;;7.30;2.17;;;;;;;6.11;76.05;97323.34;2624219;54;20559;-67
2021/12/08 09:48:10;;;;;;;7.93;2.10;;;;;;;6.20;76.23;97329.22;2624609;54;20050;-67
2021/12/08 09:50:42;;;;;;;3.75;1.55;;;;;;;6.14;75.36;97328.19;2624517;54;20040;-66
2021/12/08 09:53:12;;;;;;;7.25;2.38;;;;;;;6.16;75.39;97320.97;2623937;54;20609;-69
2021/12/08 09:55:42;;;;;;;5.03;2.30;;;;;;;6.16;75.34;97320.13;2624901;54;20038;-67
2021/12/08 09:58:12;;;;;;;6.60;1.90;;;;;;;6.15;75.48;97321.94;2624843;54;20034;-68
2021/12/08 10:00:46;;;;;;;5.03;1.90;;;;;;;6.22;75.43;97321.16;2625934;54;20202;-67
2021/12/08 10:03:17;;;;;;;7.18;2.78;;;;;;;6.26;75.17;97317.13;2625303;54;20153;-67
2021/12/08 10:05:49;;;;;;;6.93;2.97;;;;;;;6.32;75.30;97311.06;2622835;54;20028;-68
2021/12/08 10:08:19;;;;;;;5.70;2.45;;;;;;;6.36;75.62;97299.94;2622906;54;20035;-67
2021/12/08 10:10:49;;;;;;;9.05;3.55;;;;;;;6.33;75.27;97295.13;2622802;54;20057;-68
2021/12/08 10:13:20;;;;;;;9.02;3.53;;;;;;;6.40;74.69;97297.72;2622504;54;20026;-68
2021/12/08 10:15:50;;;;;;;6.32;2.78;;;;;;;6.46;75.05;97304.81;2622798;54;20026;-69
2021/12/08 10:18:20;;;;;;;9.05;3.35;;;;;;;6.48;75.17;97299.34;2623344;54;20122;-69
2021/12/08 10:20:55;;;;;;;5.80;2.92;;;;;;;6.48;75.00;97297.53;2624259;47;20026;-69
2021/12/08 10:23:30;;;;;;;11.18;2.85;;;;;;;6.52;75.09;97292.66;2624597;46;20026;-69
2021/12/08 10:26:04;;;;;;;6.05;2.42;;;;;;;6.57;75.46;97284.97;2625662;54;20526;-69
2021/12/08 10:28:37;;;;;;;14.52;3.67;;;;;;;6.67;75.62;97290.63;2625612;54;20039;-69
2021/12/08 10:31:11;;;;;;;6.72;2.58;;;;;;;6.74;75.58;97288.00;2624821;39;20480;-69
2021/12/08 10:33:53;;;;;;;;;;;;;;;6.76;75.22;97294.66;2624444;54;20133;-69
2021/12/08 10:39:32;;;;;;;10.70;2.47;;;;;;;6.68;75.42;97289.63;2625275;54;20049;-68
2021/12/08 10:42:06;;;;;;;14.48;3.08;;;;;;;6.67;75.70;97285.41;2624821;54;20042;-68
2021/12/08 10:44:53;;;;;;;10.43;3.33;;;;;;;6.75;75.61;97290.44;2625176;39;20717;-69
2021/12/08 10:47:30;;;;;;;14.13;4.88;;;;;;;6.79;75.46;97293.47;2626149;54;20038;-71
2021/12/08 10:55:37;;;;;;;16.85;7.18;;;;;;;6.79;75.36;97277.69;2625463;54;20035;-70
2021/12/08 10:58:07;;;;;;;18.83;10.07;;;;;;;6.77;75.53;97275.25;2626805;39;20465;-71
2021/12/08 11:00:40;;;;;;;8.68;5.25;;;;;;;6.79;75.91;97272.44;2625607;54;20041;-69
2021/12/08 11:03:12;;;;;;;11.35;4.63;;;;;;;6.80;76.04;97269.59;2627117;39;20462;-68
2021/12/08 11:05:47;;;;;;;9.77;2.83;;;;;;;6.77;75.58;97270.00;2625183;54;20041;-72
2021/12/08 11:08:27;;;;;;;10.05;3.40;;;;;;;6.79;75.70;97275.06;2625403;39;20421;-70
2021/12/08 11:11:00;;;;;;;9.85;3.17;;;;;;;6.71;75.58;97270.84;2625012;54;20057;-68
2021/12/08 11:13:32;;;;;;;14.77;3.63;;;;;;;6.70;76.16;97263.97;2625211;39;20437;-68
2021/12/08 11:16:13;;;;;;;8.77;2.72;;;;;;;6.72;76.02;97269.00;2624663;54;20640;-69
2021/12/08 11:18:46;;;;;;;8.85;3.75;;;;;;;6.74;76.05;97274.88;2625693;54;20089;-68
2021/12/08 11:21:20;;;;;;;10.45;3.67;;;;;;;6.78;76.05;97276.91;2625382;54;20034;-69
2021/12/08 11:24:20;;;;;;;13.10;3.83;;;;;;;6.79;76.27;97273.25;2625264;54;20026;-68
2021/12/08 11:26:52;;;;;;;8.25;3.63;;;;;;;6.81;76.29;97271.22;2625229;54;20033;-68
2021/12/08 11:29:25;;;;;;;11.93;3.28;;;;;;;6.83;76.19;97279.69;2625449;54;20034;-68
2021/12/08 11:31:59;;;;;;;9.88;3.90;;;;;;;6.78;75.76;97278.72;2625701;54;20042;-68
2021/12/08 11:34:29;;;;;;;;;;;;;;;6.77;76.37;97279.69;2625485;47;20018;-67
2021/12/08 11:37:02;;;;;;;7.47;3.00;;;;;;;6.70;75.93;97285.78;2625712;54;19947;-68
2021/12/08 11:39:36;;;;;;;9.55;3.13;;;;;;;6.76;76.44;97288.59;2625245;54;20042;-70
2021/12/08 11:42:10;;;;;;;6.38;3.65;;;;;;;6.79;76.16;97283.75;2624995;39;20422;-69
2021/12/08 11:44:42;;;;;;;7.38;3.00;;;;;;;6.84;76.05;97281.31;2625206;54;20038;-69
2021/12/08 11:47:15;;;;;;;10.10;2.97;;;;;;;6.90;76.07;97279.69;2625630;39;20445;-70
2021/12/08 11:49:49;;;;;;;9.20;2.53;;;;;;;6.90;76.15;97280.50;2624253;54;20074;-69
2021/12/08 11:52:20;;;;;;;10.60;3.08;;;;;;;6.92;76.06;97275.03;2624872;39;20426;-69
2021/12/08 11:54:56;;;;;;;9.85;3.50;;;;;;;6.89;75.83;97273.63;2624526;54;20034;-69
2021/12/08 11:57:32;;;;;;;9.95;3.67;;;;;;;6.88;75.97;97276.44;2624074;54;20045;-69
2021/12/08 12:00:11;;;;;;;11.40;3.70;;;;;;;6.90;75.84;97272.63;2622776;47;20078;-70
2021/12/08 12:02:45;;;;;;;9.88;3.08;;;;;;;6.89;75.92;97273.63;2623894;54;20082;-69
2021/12/08 12:05:18;;;;;;;12.18;3.97;;;;;;;6.87;75.87;97277.47;2623686;54;20023;-71
2021/12/08 12:07:48;;;;;;;10.02;3.00;;;;;;;6.87;75.43;97274.84;2623649;54;20042;-68
2021/12/08 16:11:44;;;;;;;11.85;5.50;;;;;;;5.82;74.48;97303.50;2594402;47;20269;31
2021/12/08 16:14:20;;;;;;;15.45;4.72;;;;;;;5.80;74.86;97305.53;2617653;54;20595;-67
2021/12/08 16:16:53;;;;;;;12.45;4.40;;;;;;;5.73;74.75;97307.31;2618089;47;20038;-67
2021/12/08 16:19:25;;;;;;;16.40;4.60;;;;;;;5.74;75.20;97308.13;2618569;54;20043;-68
2021/12/08 16:21:57;;;;;;;14.48;5.07;;;;;;;5.76;75.02;97311.38;2618390;54;20025;-66
2021/12/08 16:24:26;;;;;;;12.85;5.03;;;;;;;5.75;75.06;97310.53;2618641;54;20624;-67
2021/12/08 16:27:02;;;;;;;12.43;3.60;;;;;;;5.75;75.46;97315.78;2621648;39;20488;-70
2021/12/08 16:29:38;;;;;;;13.63;5.05;;;;;;;5.73;75.14;97304.69;2626501;39;20417;-70
2021/12/08 16:32:11;;;;;;;12.15;4.18;;;;;;;5.76;75.41;97309.56;2626956;39;20449;-70
2021/12/08 16:34:41;;;;;;;14.40;4.35;;;;;;;5.79;75.31;97309.13;2626799;54;20038;-71
2021/12/08 16:37:12;;;;;;;16.80;4.68;;;;;;;5.80;75.29;97316.00;2625091;46;20034;-70
2021/12/08 16:39:56;;;;;;;11.68;4.65;;;;;;;5.76;75.53;97317.41;2625998;54;20030;-71
2021/12/08 16:45:15;;;;;;;13.05;5.13;;;;;;;5.75;75.17;97331.50;2626017;46;20035;-71
2021/12/08 16:47:45;;;;;;;17.60;5.78;;;;;;;5.70;75.73;97329.50;2625897;54;20557;-70
2021/12/08 16:50:20;;;;;;;14.75;4.85;;;;;;;5.68;75.44;97334.13;2625585;54;20082;-70
2021/12/08 16:52:53;;;;;;;14.63;5.18;;;;;;;5.69;76.13;97338.38;2625068;46;20027;-69
2021/12/08 16:55:25;;;;;;;18.08;6.13;;;;;;;5.71;75.70;97349.47;2625544;54;20034;-69